createdAt,value
2022-09-01T00:01:22.984Z,80.50
2022-09-01T00:04:11.277Z,80.80
2022-09-01T00:06:59.443Z,80.80
2022-09-01T00:09:44.917Z,81.00
2022-09-01T00:12:30.524Z,81.30
2022-09-01T00:15:16.125Z,82.40
2022-09-01T00:18:01.461Z,81.90
2022-09-01T00:20:46.982Z,82.00
2022-09-01T00:23:32.369Z,82.50
2022-09-01T00:26:17.771Z,82.50
2022-09-01T00:29:03.876Z,82.60
2022-09-01T00:31:53.359Z,82.90
2022-09-01T00:34:39.306Z,82.90
2022-09-01T00:37:27.693Z,83.00
2022-09-01T00:40:15.738Z,83.20
2022-09-01T00:43:02.572Z,83.10
2022-09-01T00:45:48.241Z,83.50
2022-09-01T00:48:36.684Z,83.60
2022-09-01T00:51:23.691Z,83.90
2022-09-01T00:54:13.877Z,84.10
2022-09-01T00:56:59.371Z,84.10
2022-09-01T00:59:56.755Z,84.80
2022-09-01T01:02:44.907Z,85.00
2022-09-01T01:05:34.216Z,84.60
2022-09-01T01:08:29.706Z,85.00
2022-09-01T01:11:18.673Z,85.20
2022-09-01T01:14:12.283Z,85.30
2022-09-01T01:17:00.389Z,85.50
2022-09-01T01:20:06.857Z,85.80
2022-09-01T01:23:10.904Z,86.40
2022-09-01T01:25:59.480Z,86.20
2022-09-01T01:28:46.652Z,86.60
2022-09-01T01:31:32.948Z,86.40
2022-09-01T01:34:20.192Z,87.00
2022-09-01T01:37:07.028Z,86.90
2022-09-01T01:39:52.966Z,87.00
2022-09-01T01:42:38.862Z,87.50
2022-09-01T01:45:25.789Z,87.30
2022-09-01T01:48:11.616Z,87.90
2022-09-01T01:50:59.701Z,88.10
2022-09-01T01:53:52.952Z,88.20
2022-09-01T01:56:39.753Z,88.30
2022-09-01T01:59:26.509Z,88.50
2022-09-01T02:02:12.956Z,88.60
2022-09-01T02:04:59.219Z,88.70
2022-09-01T02:07:45.052Z,88.80
2022-09-01T02:10:34.430Z,88.80
2022-09-01T02:13:22.999Z,89.00
2022-09-01T02:16:13.346Z,89.20
2022-09-01T02:19:01.875Z,88.90
2022-09-01T02:21:49.119Z,89.20
2022-09-01T02:24:35.558Z,89.50
2022-09-01T02:27:25.947Z,89.70
2022-09-01T02:30:12.849Z,89.60
2022-09-01T02:33:01.776Z,89.30
2022-09-01T02:36:09.599Z,89.60
2022-09-01T02:38:56.891Z,89.80
2022-09-01T02:41:43.708Z,90.00
2022-09-01T02:44:31.273Z,90.00
2022-09-01T02:47:19.575Z,90.00
2022-09-01T02:50:13.832Z,90.10
2022-09-01T02:53:03.927Z,90.10
2022-09-01T02:55:51.637Z,90.10
2022-09-01T02:58:45.711Z,90.20
2022-09-01T03:01:32.761Z,90.40
2022-09-01T03:04:21.208Z,90.40
2022-09-01T03:07:07.067Z,90.40
2022-09-01T03:09:52.784Z,90.50
2022-09-01T03:12:43.319Z,90.50
2022-09-01T03:15:29.308Z,90.40
2022-09-01T03:18:15.700Z,90.30
2022-09-01T03:21:02.560Z,90.30
2022-09-01T03:23:49.756Z,90.20
2022-09-01T03:26:36.214Z,90.10
2022-09-01T03:29:21.447Z,90.10
2022-09-01T03:32:07.079Z,90.10
2022-09-01T03:34:54.744Z,90.10
2022-09-01T03:37:44.257Z,89.90
2022-09-01T03:40:32.689Z,89.80
2022-09-01T03:43:20.048Z,89.80
2022-09-01T03:46:05.709Z,89.80
2022-09-01T03:48:57.547Z,89.60
2022-09-01T03:51:45.114Z,89.60
2022-09-01T03:54:32.996Z,89.60
2022-09-01T03:57:18.811Z,89.70
2022-09-01T04:00:08.947Z,89.70
2022-09-01T04:03:00.721Z,89.80
2022-09-01T04:05:49.780Z,89.70
2022-09-01T04:08:36.273Z,89.60
2022-09-01T04:11:23.929Z,89.80
2022-09-01T04:14:11.326Z,89.70
2022-09-01T04:17:18.265Z,89.40
2022-09-01T04:20:09.063Z,89.60
2022-09-01T04:22:58.910Z,89.30
2022-09-01T04:25:44.148Z,89.30
2022-09-01T04:28:37.960Z,89.40
2022-09-01T04:31:23.794Z,89.30
2022-09-01T04:34:16.552Z,89.30
2022-09-01T04:37:03.347Z,89.40
2022-09-01T04:39:56.630Z,89.30
2022-09-01T04:42:45.225Z,89.10
2022-09-01T04:45:31.675Z,88.80
2022-09-01T04:48:19.277Z,88.60
2022-09-01T04:51:10.559Z,88.30
2022-09-01T04:54:14.382Z,88.10
2022-09-01T04:57:01.294Z,87.90
2022-09-01T04:59:48.616Z,87.60
2022-09-01T05:02:43.847Z,87.60
2022-09-01T05:05:39.344Z,87.40
2022-09-01T05:08:25.135Z,87.10
2022-09-01T05:11:17.973Z,87.20
2022-09-01T05:14:06.935Z,87.20
2022-09-01T05:17:00.207Z,87.00
2022-09-01T05:19:48.566Z,87.10
2022-09-01T05:22:35.638Z,87.00
2022-09-01T05:25:24.544Z,87.00
2022-09-01T05:28:12.900Z,86.90
2022-09-01T05:31:00.916Z,86.70
2022-09-01T05:33:49.995Z,86.50
2022-09-01T05:36:50.876Z,86.40
2022-09-01T05:39:37.958Z,86.20
2022-09-01T05:42:23.690Z,86.20
2022-09-01T05:45:11.862Z,86.10
2022-09-01T05:47:59.941Z,86.00
2022-09-01T05:50:46.924Z,86.00
2022-09-01T05:53:34.882Z,86.00
2022-09-01T05:56:20.528Z,86.00
2022-09-01T06:02:18.306Z,85.60
2022-09-01T06:05:07.453Z,85.50
2022-09-01T06:07:57.245Z,85.30
2022-09-01T06:10:42.944Z,85.30
2022-09-01T06:13:28.224Z,85.00
2022-09-01T06:16:16.985Z,85.00
2022-09-01T06:19:05.991Z,84.70
2022-09-01T06:21:53.725Z,84.50
2022-09-01T06:24:40.881Z,84.30
2022-09-01T06:27:29.620Z,83.90
2022-09-01T06:30:23.806Z,83.60
2022-09-01T06:33:27.810Z,83.20
2022-09-01T06:36:14.499Z,82.90
2022-09-01T06:39:01.417Z,83.30
2022-09-01T06:41:53.382Z,82.40
2022-09-01T06:44:42.615Z,82.20
2022-09-01T06:47:30.889Z,81.80
2022-09-01T06:53:32.824Z,81.40
2022-09-01T06:56:22.358Z,81.00
2022-09-01T06:59:08.243Z,80.60
2022-09-01T07:02:01.430Z,80.40
2022-09-01T07:04:56.916Z,80.20
2022-09-01T07:08:05.089Z,79.90
2022-09-01T07:17:55.697Z,79.30
2022-09-01T07:21:02.762Z,79.00
2022-09-01T07:24:08.807Z,78.80
2022-09-01T07:26:54.368Z,78.70
2022-09-01T07:29:41.644Z,83.80
2022-09-01T07:54:38.684Z,59.80
2022-09-01T07:59:43.141Z,64.40
2022-09-01T08:02:43.817Z,64.70
2022-09-01T08:05:33.337Z,65.20
2022-09-01T08:08:22.727Z,65.70
2022-09-01T08:11:25.249Z,66.40
2022-09-01T08:14:20.617Z,66.70
2022-09-01T08:20:14.842Z,66.70
2022-09-01T08:23:26.786Z,66.30
2022-09-01T08:26:17.389Z,66.10
2022-09-01T08:29:03.123Z,66.20
2022-09-01T08:31:59.316Z,66.20
2022-09-01T08:34:47.467Z,66.20
2022-09-01T08:37:33.055Z,66.00
2022-09-01T08:40:21.184Z,65.70
2022-09-01T08:43:43.269Z,65.60
2022-09-01T08:46:39.865Z,65.10
2022-09-01T08:49:27.387Z,64.90
2022-09-01T08:52:53.001Z,64.80
2022-09-01T08:55:49.452Z,64.70
2022-09-01T08:58:35.355Z,64.10
2022-09-01T09:01:51.786Z,63.90
2022-09-01T09:04:54.968Z,64.40
2022-09-01T09:08:15.468Z,63.50
2022-09-01T09:11:19.112Z,63.00
2022-09-01T09:14:18.005Z,62.40
2022-09-01T09:17:04.527Z,62.20
2022-09-01T09:19:50.155Z,62.00
2022-09-01T09:22:35.636Z,61.40
2022-09-01T09:25:21.794Z,60.80
2022-09-01T09:28:07.050Z,59.90
2022-09-01T09:31:32.425Z,59.90
2022-09-01T09:34:36.623Z,59.40
2022-09-01T09:37:31.111Z,59.20
2022-09-01T09:40:22.108Z,58.70
2022-09-01T09:43:07.727Z,58.70
2022-09-01T09:46:25.647Z,58.30
2022-09-01T09:49:36.123Z,57.80
2022-09-01T09:52:23.193Z,57.80
2022-09-01T09:55:22.264Z,56.60
2022-09-01T09:58:11.827Z,56.30
2022-09-01T10:01:29.298Z,55.60
2022-09-01T10:04:32.708Z,55.30
2022-09-01T10:07:26.006Z,55.20
2022-09-01T10:10:39.071Z,54.60
2022-09-01T10:13:26.917Z,53.70
2022-09-01T10:16:25.108Z,53.30
2022-09-01T10:19:16.428Z,52.90
2022-09-01T10:22:03.226Z,52.60
2022-09-01T10:24:50.548Z,52.50
2022-09-01T10:27:40.626Z,52.20
2022-09-01T10:30:26.014Z,51.50
2022-09-01T10:33:19.915Z,50.90
2022-09-01T10:36:07.992Z,50.40
2022-09-01T10:39:04.408Z,50.40
2022-09-01T10:42:00.029Z,50.20
2022-09-01T10:45:01.892Z,49.80
2022-09-01T10:47:47.600Z,49.60
2022-09-01T10:50:36.507Z,49.00
2022-09-01T10:53:48.783Z,48.70
2022-09-01T10:56:43.643Z,48.40
2022-09-01T10:59:32.127Z,48.10
2022-09-01T11:02:27.618Z,48.40
2022-09-01T11:05:32.685Z,46.70
2022-09-01T11:08:50.331Z,46.20
2022-09-01T11:12:17.334Z,46.00
2022-09-01T11:15:14.672Z,45.20
2022-09-01T11:18:00.373Z,44.30
2022-09-01T11:20:50.380Z,43.10
2022-09-01T11:23:35.757Z,42.20
2022-09-01T11:26:34.988Z,41.60
2022-09-01T11:29:53.031Z,39.00
2022-09-01T11:32:46.758Z,38.50
2022-09-01T11:35:32.362Z,37.70
2022-09-01T11:38:19.524Z,36.90
2022-09-01T11:41:05.091Z,36.30
2022-09-01T11:43:54.551Z,34.70
2022-09-01T11:46:43.364Z,33.60
2022-09-01T11:49:35.112Z,33.30
2022-09-01T11:52:23.715Z,32.80
2022-09-01T11:55:10.677Z,32.00
2022-09-01T11:57:56.187Z,31.10
2022-09-01T12:00:42.968Z,30.50
2022-09-01T12:03:30.379Z,30.00
2022-09-01T12:06:29.368Z,29.40
2022-09-01T12:09:14.796Z,29.20
2022-09-01T12:12:01.696Z,28.50
2022-09-01T12:15:05.593Z,28.10
2022-09-01T12:18:10.596Z,27.50
2022-09-01T12:20:59.444Z,27.10
2022-09-01T12:23:50.310Z,26.70
2022-09-01T12:26:35.720Z,26.40
2022-09-01T12:29:23.251Z,25.60
2022-09-01T12:32:09.145Z,25.10
2022-09-01T12:35:09.243Z,25.00
2022-09-01T12:38:18.731Z,24.30
2022-09-01T12:41:44.081Z,23.70
2022-09-01T12:44:37.704Z,23.30
2022-09-01T12:47:36.149Z,23.00
2022-09-01T12:50:21.112Z,22.80
2022-09-01T12:53:23.603Z,22.30
2022-09-01T12:56:36.005Z,21.90
2022-09-01T12:59:29.915Z,21.80
2022-09-01T13:02:36.807Z,21.60
2022-09-01T13:05:33.638Z,21.10
2022-09-01T13:08:29.821Z,20.90
2022-09-01T13:11:20.162Z,20.80
2022-09-01T13:14:05.836Z,20.60
2022-09-01T13:16:51.394Z,20.60
2022-09-01T13:19:37.740Z,20.00
2022-09-01T13:22:22.783Z,19.70
2022-09-01T13:25:10.828Z,19.10
2022-09-01T13:27:56.298Z,19.10
2022-09-01T13:30:43.234Z,19.30
2022-09-01T13:34:09.264Z,19.30
2022-09-01T13:36:49.326Z,18.50
2022-09-01T13:39:35.699Z,18.50
2022-09-01T13:42:22.667Z,18.30
2022-09-01T13:45:13.215Z,18.10
2022-09-01T13:51:20.032Z,17.60
2022-09-01T13:54:05.576Z,17.60
2022-09-01T13:56:52.316Z,18.20
2022-09-01T13:59:44.299Z,17.60
2022-09-01T14:02:29.757Z,17.20
2022-09-01T14:05:17.263Z,17.20
2022-09-01T14:08:03.365Z,16.90
2022-09-01T14:10:51.211Z,16.80
2022-09-01T14:13:39.319Z,16.60
2022-09-01T14:16:26.203Z,16.70
2022-09-01T14:19:15.828Z,17.10
2022-09-01T14:22:06.007Z,16.80
2022-09-01T14:24:51.069Z,16.70
2022-09-01T14:27:37.332Z,16.70
2022-09-01T14:30:30.459Z,16.60
2022-09-01T14:33:18.030Z,16.60
2022-09-01T14:36:16.816Z,16.40
2022-09-01T14:39:01.981Z,16.30
2022-09-01T14:41:47.223Z,16.20
2022-09-01T14:44:34.548Z,16.20
2022-09-01T14:47:21.259Z,16.30
2022-09-01T14:52:55.565Z,16.00
2022-09-01T14:55:44.049Z,15.80
2022-09-01T14:58:30.305Z,15.60
2022-09-01T15:01:33.614Z,16.10
2022-09-01T15:04:20.110Z,16.10
2022-09-01T15:07:06.391Z,15.90
2022-09-01T15:09:51.422Z,15.70
2022-09-01T15:12:39.639Z,15.60
2022-09-01T15:15:26.525Z,15.90
2022-09-01T15:18:12.265Z,15.70
2022-09-01T15:20:58.063Z,15.90
2022-09-01T15:23:45.607Z,16.00
2022-09-01T15:26:30.995Z,15.90
2022-09-01T15:29:16.573Z,15.60
2022-09-01T15:32:02.326Z,15.70
2022-09-01T15:34:48.781Z,15.60
2022-09-01T15:37:34.617Z,15.40
2022-09-01T15:40:20.053Z,15.20
2022-09-01T15:43:05.795Z,15.80
2022-09-01T15:45:51.035Z,15.40
2022-09-01T15:48:36.611Z,15.70
2022-09-01T15:51:21.891Z,15.60
2022-09-01T15:54:11.523Z,15.60
2022-09-01T15:56:56.913Z,15.50
2022-09-01T15:59:43.146Z,15.60
2022-09-01T16:02:30.377Z,16.10
2022-09-01T16:05:17.425Z,15.40
2022-09-01T16:08:04.744Z,15.50
2022-09-01T16:10:50.072Z,15.50
2022-09-01T16:13:37.751Z,15.50
2022-09-01T16:16:58.134Z,15.60
2022-09-01T16:20:09.200Z,15.80
2022-09-01T16:23:03.293Z,15.80
2022-09-01T16:25:49.570Z,15.70
2022-09-01T16:28:38.043Z,15.50
2022-09-01T16:31:26.411Z,15.70
2022-09-01T16:34:18.234Z,15.80
2022-09-01T16:37:27.179Z,15.60
2022-09-01T16:40:30.255Z,15.90
2022-09-01T16:43:40.135Z,16.40
2022-09-01T16:46:45.647Z,16.40
2022-09-01T16:49:53.338Z,17.20
2022-09-01T16:52:44.521Z,16.40
2022-09-01T16:56:05.259Z,16.30
2022-09-01T16:59:03.301Z,16.90
2022-09-01T17:02:06.780Z,16.30
2022-09-01T17:05:12.967Z,16.50
2022-09-01T17:08:20.076Z,16.20
2022-09-01T17:11:22.158Z,16.30
2022-09-01T17:14:09.906Z,16.60
2022-09-01T17:17:06.603Z,16.70
2022-09-01T17:19:55.259Z,16.60
2022-09-01T17:22:49.291Z,16.80
2022-09-01T17:25:48.824Z,16.80
2022-09-01T17:28:44.133Z,16.90
2022-09-01T17:31:50.175Z,16.80
2022-09-01T17:35:07.657Z,17.10
2022-09-01T17:38:10.138Z,17.70
2022-09-01T17:41:34.519Z,18.20
2022-09-01T17:44:23.274Z,18.70
2022-09-01T17:47:19.907Z,19.10
2022-09-01T17:50:24.469Z,19.70
2022-09-01T17:53:23.305Z,20.30
2022-09-01T17:56:42.757Z,21.00
2022-09-01T17:59:44.636Z,21.70
2022-09-01T18:03:07.803Z,22.50
2022-09-01T18:06:10.873Z,23.20
2022-09-01T18:09:00.871Z,23.90
2022-09-01T18:12:09.947Z,24.60
2022-09-01T18:15:09.846Z,25.40
2022-09-01T18:18:17.067Z,25.90
2022-09-01T18:21:10.143Z,26.60
2022-09-01T18:24:26.604Z,27.20
2022-09-01T18:27:14.842Z,27.90
2022-09-01T18:30:01.266Z,28.60
2022-09-01T18:32:46.684Z,29.60
2022-09-01T18:35:47.298Z,31.40
2022-09-01T18:38:46.102Z,34.00
2022-09-01T18:41:58.892Z,35.50
2022-09-01T18:44:57.905Z,36.60
2022-09-01T18:48:15.379Z,38.00
2022-09-01T18:51:23.747Z,38.90
2022-09-01T18:54:50.488Z,39.60
2022-09-01T18:57:41.629Z,40.40
2022-09-01T19:00:53.846Z,41.00
2022-09-01T19:03:54.319Z,42.00
2022-09-01T19:06:45.688Z,43.00
2022-09-01T19:09:40.941Z,43.60
2022-09-01T19:12:39.384Z,44.20
2022-09-01T19:15:35.001Z,44.50
2022-09-01T19:18:54.822Z,45.30
2022-09-01T19:21:43.718Z,45.90
2022-09-01T19:24:43.580Z,46.80
2022-09-01T19:27:34.383Z,47.20
2022-09-01T19:30:21.324Z,47.60
2022-09-01T19:33:09.063Z,48.30
2022-09-01T19:35:59.734Z,48.50
2022-09-01T19:38:45.363Z,48.70
2022-09-01T19:41:55.672Z,49.00
2022-09-01T19:44:53.256Z,49.40
2022-09-01T19:48:05.868Z,49.70
2022-09-01T19:51:17.209Z,50.10
2022-09-01T19:54:17.219Z,50.70
2022-09-01T19:57:15.969Z,50.90
2022-09-01T20:00:17.415Z,51.30
2022-09-01T20:03:12.961Z,51.60
2022-09-01T20:06:12.388Z,51.90
2022-09-01T20:09:20.834Z,52.50
2022-09-01T20:12:24.985Z,52.80
2022-09-01T20:15:37.447Z,53.20
2022-09-01T20:18:49.316Z,53.50
2022-09-01T20:21:42.324Z,53.90
2022-09-01T20:24:46.105Z,54.20
2022-09-01T20:27:38.170Z,54.70
2022-09-01T20:30:27.235Z,54.80
2022-09-01T20:33:24.208Z,55.00
2022-09-01T20:36:59.447Z,55.40
2022-09-01T20:40:11.178Z,55.50
2022-09-01T20:43:08.277Z,55.80
2022-09-01T20:45:53.913Z,56.40
2022-09-01T20:48:41.437Z,56.60
2022-09-01T20:51:44.004Z,56.50
2022-09-01T20:54:49.028Z,56.70
2022-09-01T20:58:06.031Z,56.80
2022-09-01T21:01:03.572Z,56.90
2022-09-01T21:04:03.859Z,56.90
2022-09-01T21:06:54.617Z,56.90
2022-09-01T21:10:09.977Z,56.70
2022-09-01T21:13:26.567Z,56.70
2022-09-01T21:16:27.888Z,56.70
2022-09-01T21:19:33.972Z,56.60
2022-09-01T21:22:22.168Z,56.60
2022-09-01T21:25:11.082Z,56.60
2022-09-01T21:27:59.814Z,56.60
2022-09-01T21:30:46.461Z,56.60
2022-09-01T21:33:34.502Z,56.70
2022-09-01T21:36:20.038Z,56.80
2022-09-01T21:39:08.714Z,56.90
2022-09-01T21:41:54.759Z,57.00
2022-09-01T21:44:40.808Z,57.00
2022-09-01T21:47:27.004Z,57.20
2022-09-01T21:50:13.970Z,57.20
2022-09-01T21:52:59.251Z,57.40
2022-09-01T21:55:47.849Z,57.40
2022-09-01T21:58:36.095Z,57.30
2022-09-01T22:01:21.668Z,57.30
2022-09-01T22:04:06.943Z,57.30
2022-09-01T22:06:52.886Z,57.40
2022-09-01T22:09:38.216Z,57.50
2022-09-01T22:12:23.863Z,57.50
2022-09-01T22:15:13.951Z,57.40
2022-09-01T22:17:59.621Z,57.40
2022-09-01T22:20:46.409Z,57.40
2022-09-01T22:23:32.015Z,57.40
2022-09-01T22:26:32.091Z,57.40
2022-09-01T22:29:18.398Z,57.40
2022-09-01T22:32:04.778Z,57.40
2022-09-01T22:34:50.217Z,57.40
2022-09-01T22:37:36.648Z,57.40
2022-09-01T22:40:22.312Z,57.40
2022-09-01T22:43:10.311Z,57.40
2022-09-01T22:45:59.778Z,57.40
2022-09-01T22:48:47.405Z,57.30
2022-09-01T22:51:34.938Z,57.30
2022-09-01T22:54:20.635Z,57.30
2022-09-01T22:57:05.977Z,57.10
2022-09-01T22:59:51.425Z,57.20
2022-09-01T23:02:43.186Z,57.10
2022-09-01T23:05:30.065Z,57.10
2022-09-01T23:08:16.401Z,57.20
2022-09-01T23:11:05.037Z,57.20
2022-09-01T23:14:00.156Z,57.20
2022-09-01T23:16:47.098Z,57.30
2022-09-01T23:19:36.945Z,57.40
2022-09-01T23:22:22.126Z,57.50
2022-09-01T23:25:08.157Z,57.80
2022-09-01T23:27:53.469Z,57.90
2022-09-01T23:30:41.616Z,57.80
2022-09-01T23:33:30.876Z,57.70
2022-09-01T23:36:20.703Z,57.70
2022-09-01T23:39:10.268Z,57.80
2022-09-01T23:41:55.938Z,57.80
2022-09-01T23:44:41.224Z,58.40
2022-09-01T23:47:30.376Z,57.80
2022-09-01T23:50:18.470Z,57.80
2022-09-01T23:53:04.672Z,57.80
2022-09-01T23:55:59.720Z,57.60
2022-09-01T23:58:45.350Z,57.70
